Time;durP1;ratioP1;P1;durP2;ratioP2;P2;SDS_P1;SDS_P2;PMS_P1;PMS_P2;Temp;Humidity;BMP_temperature;BMP_pressure;BME280_temperature;BME280_humidity;BME280_pressure;Samples;Min_cycle;Max_cycle;Signal;HPM_P1;HPM_P2
2023/11/25 00:01:51;;;;;;;6.50;2.50;;;;;;;11.20;46.43;97421.50;108377;1251;69699;-61
2023/11/25 00:04:19;;;;;;;6.70;2.90;;;;;;;11.29;46.35;97419.73;108282;1254;72477;-63
2023/11/25 00:06:48;;;;;;;7.00;2.60;;;;;;;11.31;46.16;97417.83;108264;1253;60678;-61
2023/11/25 00:09:16;;;;;;;5.50;2.50;;;;;;;11.20;46.16;97416.59;107936;1252;60703;-62
2023/11/25 00:11:43;;;;;;;5.70;2.30;;;;;;;11.17;46.43;97420.52;108185;1254;72874;-62
2023/11/25 00:14:11;;;;;;;8.50;2.60;;;;;;;11.36;45.88;97420.92;108191;1254;69689;-62
2023/11/25 00:16:39;;;;;;;4.70;2.10;;;;;;;11.10;46.15;97418.27;107861;1254;71650;-62
2023/11/25 00:19:06;;;;;;;;;;;;;;;11.11;46.06;97417.81;108179;1257;60679;-63
2023/11/25 00:21:34;;;;;;;;;;;;;;;10.91;46.59;97422.80;108249;1254;59601;-62
2023/11/25 00:24:02;;;;;;;6.30;2.60;;;;;;;10.73;46.81;97428.73;108346;1253;73605;-62
2023/11/25 00:26:30;;;;;;;5.10;2.80;;;;;;;10.63;47.02;97427.25;108267;1254;69156;-63
2023/11/25 00:28:58;;;;;;;7.80;2.80;;;;;;;10.58;47.27;97433.24;108409;1252;72326;-62
2023/11/25 00:31:26;;;;;;;4.90;2.70;;;;;;;10.59;47.24;97431.05;108293;1253;62028;-62
2023/11/25 00:33:54;;;;;;;8.90;3.30;;;;;;;10.67;47.02;97433.75;108240;1253;59846;-65
2023/11/25 00:36:21;;;;;;;4.70;2.60;;;;;;;10.75;46.97;97431.41;108325;1254;73699;-65
2023/11/25 00:38:49;;;;;;;6.40;3.00;;;;;;;10.65;47.09;97425.52;108315;1254;69502;-63
2023/11/25 00:41:17;;;;;;;8.70;3.70;;;;;;;10.66;47.11;97430.34;108267;1254;72505;-61
2023/11/25 00:43:45;;;;;;;5.40;2.90;;;;;;;10.74;46.74;97435.27;108118;1254;60988;-67
2023/11/25 00:46:13;;;;;;;6.10;3.00;;;;;;;10.99;46.61;97443.50;108155;1254;61183;-63
2023/11/25 00:48:43;;;;;;;;;;;;;;;10.84;46.87;97448.57;108319;1252;74516;-62
2023/11/25 00:51:12;;;;;;;4.70;3.00;;;;;;;10.72;46.92;97454.94;108341;1253;69168;-62
2023/11/25 00:53:39;;;;;;;4.10;2.70;;;;;;;10.77;47.16;97456.11;108252;1254;71496;-63
2023/11/25 00:56:07;;;;;;;;;;;;;;;10.82;47.14;97456.80;108324;1253;60613;-63
2023/11/25 00:58:35;;;;;;;6.40;2.70;;;;;;;10.81;47.14;97461.39;108252;1254;59500;-63
2023/11/25 01:01:04;;;;;;;5.90;3.10;;;;;;;10.72;47.23;97461.61;108277;1254;73530;-59
2023/11/25 01:03:32;;;;;;;7.30;2.60;;;;;;;10.80;47.40;97463.08;108305;1254;69572;-62
2023/11/25 01:06:06;;;;;;;4.20;2.40;;;;;;;10.90;47.14;97468.23;108335;1253;72862;-62
2023/11/25 01:08:36;;;;;;;6.50;2.60;;;;;;;10.96;47.11;97466.88;108141;1251;60614;-62
2023/11/25 01:11:05;;;;;;;5.30;2.70;;;;;;;10.94;47.01;97470.73;108191;1251;60154;-63
2023/11/25 01:13:33;;;;;;;6.20;3.00;;;;;;;10.92;47.10;97467.39;108330;1251;73590;-59
2023/11/25 01:16:00;;;;;;;7.30;2.90;;;;;;;10.84;47.19;97458.90;108370;1254;69048;-59
2023/11/25 01:18:29;;;;;;;3.60;2.40;;;;;;;11.02;47.03;97452.88;108332;1253;72438;-60
2023/11/25 01:20:57;;;;;;;3.40;2.50;;;;;;;11.56;46.30;97446.63;108349;1254;60551;-60
2023/11/25 01:23:25;;;;;;;5.40;2.80;;;;;;;11.33;45.95;97440.59;108394;1251;59701;-60
2023/11/25 01:25:53;;;;;;;4.10;2.50;;;;;;;11.14;46.23;97435.09;108420;1251;73614;-60
2023/11/25 01:28:21;;;;;;;5.20;2.90;;;;;;;11.01;46.39;97434.22;108362;1251;69306;-61
2023/11/25 01:30:49;;;;;;;5.80;2.70;;;;;;;11.08;46.26;97438.77;108204;1254;74975;-62
2023/11/25 01:33:16;;;;;;;4.50;2.40;;;;;;;10.96;46.24;97441.32;108358;1254;63687;-62
2023/11/25 01:35:46;;;;;;;4.70;2.00;;;;;;;11.00;46.26;97440.48;108413;1254;59244;-60
2023/11/25 01:38:15;;;;;;;5.90;2.90;;;;;;;10.81;46.46;97445.77;108446;1251;73730;-60
2023/11/25 01:40:42;;;;;;;3.80;2.60;;;;;;;10.74;46.73;97449.54;108229;1251;69170;-60
2023/11/25 01:43:10;;;;;;;;;;;;;;;10.47;47.04;97457.72;108482;1251;73766;-60
2023/11/25 01:45:38;;;;;;;4.80;2.30;;;;;;;10.70;46.70;97463.13;108320;1251;60628;-61
2023/11/25 01:48:06;;;;;;;;;;;;;;;10.67;46.34;97467.60;108365;1251;58868;-61
2023/11/25 01:50:36;;;;;;;5.60;2.30;;;;;;;10.38;47.03;97478.20;108211;1254;72483;-61
2023/11/25 01:53:05;;;;;;;4.30;2.80;;;;;;;10.26;47.32;97475.80;108437;1251;68249;-61
2023/11/25 01:55:33;;;;;;;7.60;3.60;;;;;;;10.25;47.63;97476.55;108440;1253;72888;-61
2023/11/25 01:58:01;;;;;;;5.10;3.00;;;;;;;10.76;46.80;97477.99;108310;1251;60575;-61
2023/11/25 02:00:29;;;;;;;;;;;;;;;10.51;47.12;97477.34;108344;1251;59790;-60
2023/11/25 02:02:57;;;;;;;;;;;;;;;10.41;47.34;97480.91;108360;1251;73665;-61
2023/11/25 02:05:25;;;;;;;4.90;2.60;;;;;;;10.45;47.49;97485.74;108262;1251;69422;-61
2023/11/25 02:07:53;;;;;;;;;;;;;;;10.55;47.11;97486.88;108128;1253;72355;-60
2023/11/25 02:10:20;;;;;;;4.60;2.70;;;;;;;10.67;46.98;97494.77;108274;1253;61573;-59
2023/11/25 02:12:50;;;;;;;5.70;3.10;;;;;;;11.02;46.46;97505.42;108284;1253;59833;-59
2023/11/25 02:15:18;;;;;;;5.60;3.00;;;;;;;11.02;45.72;97512.90;108339;1252;74090;-61
2023/11/25 02:17:46;;;;;;;4.40;2.40;;;;;;;10.89;46.27;97527.52;108183;1253;69343;-59
2023/11/25 02:20:14;;;;;;;4.10;1.90;;;;;;;11.06;46.22;97533.98;108235;1251;72314;-60
2023/11/25 02:22:47;;;;;;;;;;;;;;;11.24;45.63;97534.12;108398;1254;62926;-60
2023/11/25 02:25:15;;;;;;;4.20;2.10;;;;;;;12.26;44.19;97524.72;108527;1251;59849;-60
2023/11/25 02:27:43;;;;;;;4.60;2.60;;;;;;;11.24;45.61;97526.06;108210;1251;72802;-61
2023/11/25 02:30:12;;;;;;;3.90;2.80;;;;;;;11.38;45.78;97524.91;108212;1251;69974;-60
2023/11/25 02:32:40;;;;;;;4.40;2.30;;;;;;;11.34;45.73;97538.05;108398;1251;72452;-59
2023/11/25 02:35:09;;;;;;;8.90;2.60;;;;;;;11.61;45.78;97546.07;108540;1251;59724;-60
2023/11/25 02:37:37;;;;;;;4.70;2.60;;;;;;;11.41;45.75;97546.96;108395;1253;58979;-59
2023/11/25 02:40:09;;;;;;;3.50;2.40;;;;;;;11.46;46.12;97547.23;108434;1251;73719;-59
2023/11/25 02:42:37;;;;;;;5.50;2.80;;;;;;;11.17;46.36;97556.25;108492;1251;68507;-59
2023/11/25 02:45:06;;;;;;;5.30;3.00;;;;;;;11.09;46.42;97561.91;108405;1251;73385;-60
2023/11/25 02:47:34;;;;;;;6.50;3.40;;;;;;;11.03;46.45;97572.77;108222;1251;61859;-59
2023/11/25 02:50:03;;;;;;;4.20;2.90;;;;;;;11.01;46.93;97575.08;108484;1252;59762;-58
2023/11/25 02:52:31;;;;;;;6.80;3.30;;;;;;;10.97;47.00;97570.81;108230;1251;72857;-59
2023/11/25 02:54:58;;;;;;;5.60;2.40;;;;;;;10.82;47.31;97558.46;108283;1251;69045;-58
2023/11/25 02:57:27;;;;;;;;;;;;;;;10.84;47.36;97552.32;108329;1251;72904;-58
2023/11/25 02:59:56;;;;;;;5.30;2.90;;;;;;;10.88;47.37;97557.92;108268;1251;60082;-58
2023/11/25 03:02:24;;;;;;;5.80;3.10;;;;;;;10.93;47.19;97560.58;108364;1251;60144;-59
2023/11/25 03:04:53;;;;;;;;;;;;;;;10.82;47.21;97569.59;108416;1251;74141;-59
2023/11/25 03:07:21;;;;;;;4.60;2.40;;;;;;;10.85;47.12;97585.01;108402;1251;68492;-59
2023/11/25 03:09:48;;;;;;;;;;;;;;;11.30;46.10;97595.37;108424;1251;72319;-58
2023/11/25 03:12:17;;;;;;;4.40;2.50;;;;;;;12.17;44.90;97595.33;108217;1250;60188;-58
2023/11/25 03:14:45;;;;;;;5.70;2.80;;;;;;;11.15;46.14;97606.70;108372;1251;59828;-58
2023/11/25 03:17:13;;;;;;;7.00;3.40;;;;;;;11.58;45.84;97608.13;108383;1250;73951;-59
2023/11/25 03:19:40;;;;;;;;;;;;;;;10.99;46.34;97606.21;108206;1250;69759;-59
2023/11/25 03:22:08;;;;;;;;;;;;;;;10.91;46.62;97591.59;108293;1251;72940;-60
2023/11/25 03:24:36;;;;;;;7.10;3.00;;;;;;;10.65;47.11;97583.21;108403;1251;60618;-60
2023/11/25 03:27:03;;;;;;;;;;;;;;;12.86;43.22;97575.53;108177;1250;59655;-60
2023/11/25 03:29:32;;;;;;;8.20;2.90;;;;;;;10.97;45.73;97590.08;108185;1251;73638;-58
2023/11/25 03:32:00;;;;;;;8.20;2.90;;;;;;;10.71;46.67;97599.20;108383;1250;70326;-59
2023/11/25 03:34:28;;;;;;;9.70;2.70;;;;;;;10.65;46.91;97597.77;108395;1251;72504;-59
2023/11/25 03:36:55;;;;;;;8.40;3.00;;;;;;;10.47;47.24;97597.52;108408;1251;60608;-59
2023/11/25 03:39:23;;;;;;;6.20;2.90;;;;;;;10.51;47.31;97602.30;108225;1251;59003;-60
2023/11/25 03:41:52;;;;;;;6.10;3.30;;;;;;;10.47;47.41;97605.91;108418;1250;74171;-59
2023/11/25 03:44:21;;;;;;;11.70;3.50;;;;;;;10.46;47.36;97608.63;108200;1250;69347;-59
2023/11/25 03:46:49;;;;;;;5.00;2.70;;;;;;;10.59;47.14;97607.78;108373;1251;71540;-59
2023/11/25 03:49:17;;;;;;;6.10;3.20;;;;;;;10.55;46.94;97606.02;108423;1251;60547;-60
2023/11/25 03:51:46;;;;;;;7.00;3.70;;;;;;;10.28;47.53;97603.79;108454;1250;59820;-60
2023/11/25 03:54:14;;;;;;;6.20;2.90;;;;;;;10.26;47.62;97602.02;108262;1251;73617;-59
2023/11/25 03:56:42;;;;;;;4.90;3.20;;;;;;;10.32;47.75;97610.20;108369;1250;67947;-59
2023/11/25 03:59:09;;;;;;;6.20;3.00;;;;;;;10.47;47.44;97614.35;108260;1250;73317;-59
2023/11/25 04:01:37;;;;;;;6.30;3.10;;;;;;;10.48;47.09;97621.44;108273;1251;60746;-59
2023/11/25 04:04:06;;;;;;;;;;;;;;;10.49;46.97;97626.41;108302;1251;60622;-59
2023/11/25 04:06:34;;;;;;;9.30;3.30;;;;;;;10.29;47.41;97633.88;108322;1251;73697;-59
2023/11/25 04:09:02;;;;;;;7.20;3.20;;;;;;;10.16;47.41;97635.48;108421;1250;69956;-58
2023/11/25 04:11:30;;;;;;;5.60;3.00;;;;;;;10.15;47.81;97637.27;108390;1252;71818;-59
2023/11/25 04:13:57;;;;;;;4.80;2.90;;;;;;;10.15;47.78;97645.54;108414;1251;60643;-59
2023/11/25 04:16:25;;;;;;;5.90;3.30;;;;;;;10.15;47.60;97648.66;108420;1251;60410;-59
2023/11/25 04:18:53;;;;;;;;;;;;;;;10.15;47.59;97648.33;108482;1250;73716;-59
2023/11/25 04:21:22;;;;;;;5.90;3.40;;;;;;;10.22;47.37;97655.94;108302;1252;70032;-59
2023/11/25 04:23:51;;;;;;;6.40;4.50;;;;;;;10.32;47.23;97659.88;108339;1253;71573;-59
2023/11/25 04:26:19;;;;;;;7.10;4.20;;;;;;;10.38;47.24;97672.80;108498;1252;61042;-60
2023/11/25 04:28:47;;;;;;;8.10;4.00;;;;;;;10.43;47.28;97664.15;108470;1251;59743;-59
2023/11/25 04:31:15;;;;;;;7.60;3.90;;;;;;;10.49;47.06;97648.51;108440;1253;73958;-59
2023/11/25 04:33:43;;;;;;;11.10;4.20;;;;;;;10.42;46.94;97639.58;108496;1250;69155;-61
2023/11/25 04:36:11;;;;;;;5.20;3.40;;;;;;;10.41;47.00;97636.19;108460;1250;72642;-59
2023/11/25 04:38:40;;;;;;;6.90;3.70;;;;;;;10.47;47.00;97645.85;108553;1250;61711;-59
2023/11/25 04:41:08;;;;;;;6.40;3.90;;;;;;;10.93;46.26;97650.30;108412;1250;60654;-60
2023/11/25 04:43:36;;;;;;;5.20;3.70;;;;;;;10.55;46.44;97645.44;108470;1250;73353;-59
2023/11/25 04:46:04;;;;;;;8.50;4.00;;;;;;;10.52;46.79;97654.42;108326;1250;70035;-60
2023/11/25 04:48:34;;;;;;;5.20;3.50;;;;;;;10.51;46.83;97660.45;108453;1251;72899;-59
2023/11/25 04:51:01;;;;;;;6.00;3.90;;;;;;;10.52;46.49;97665.42;108410;1249;60736;-59
2023/11/25 04:53:29;;;;;;;5.60;3.90;;;;;;;10.60;46.49;97666.98;108521;1249;60718;-59
2023/11/25 04:55:57;;;;;;;;;;;;;;;10.57;46.42;97657.77;108518;1252;74288;-60
2023/11/25 04:58:25;;;;;;;6.30;4.10;;;;;;;10.57;46.35;97661.96;108465;1251;69278;-59
2023/11/25 05:00:54;;;;;;;5.80;3.60;;;;;;;10.70;45.90;97660.58;108399;1250;73358;-59
2023/11/25 05:03:21;;;;;;;5.90;4.10;;;;;;;10.71;45.88;97663.70;108451;1250;61236;-59
2023/11/25 05:05:49;;;;;;;;;;;;;;;10.43;46.02;97669.23;108473;1250;58956;-61
2023/11/25 05:08:17;;;;;;;7.00;4.10;;;;;;;10.33;46.39;97670.87;108523;1250;73625;-60
2023/11/25 05:10:44;;;;;;;;;;;;;;;10.19;46.39;97676.42;108484;1252;68157;-59
2023/11/25 05:13:12;;;;;;;15.00;4.60;;;;;;;10.06;46.34;97691.68;108442;1252;72249;-59
2023/11/25 05:15:43;;;;;;;10.70;4.80;;;;;;;9.93;46.72;97712.95;108345;1252;60043;-59
2023/11/25 05:18:13;;;;;;;6.00;4.10;;;;;;;10.12;46.49;97725.77;108399;1251;62554;-59
2023/11/25 05:20:40;;;;;;;10.50;4.20;;;;;;;10.10;46.39;97718.00;108401;1252;72488;-59
2023/11/25 05:23:08;;;;;;;;;;;;;;;10.13;46.42;97725.15;108384;1251;69132;-60
2023/11/25 05:25:36;;;;;;;8.80;4.90;;;;;;;10.24;46.34;97718.23;108488;1251;72901;-59
2023/11/25 05:28:03;;;;;;;;;;;;;;;10.35;46.14;97708.73;108448;1251;62055;-59
2023/11/25 05:30:31;;;;;;;7.30;4.40;;;;;;;10.39;46.10;97710.23;108350;1251;59432;-59
2023/11/25 05:32:59;;;;;;;;;;;;;;;10.37;46.24;97715.42;108338;1251;74192;-59
2023/11/25 05:35:27;;;;;;;8.10;4.80;;;;;;;10.34;46.32;97726.13;108323;1251;69314;-59
2023/11/25 05:37:55;;;;;;;7.90;5.10;;;;;;;10.35;46.38;97730.45;108293;1252;71010;-59
2023/11/25 05:40:23;;;;;;;7.30;4.80;;;;;;;10.30;46.31;97725.36;108371;1253;61058;-58
2023/11/25 05:42:53;;;;;;;6.50;4.90;;;;;;;10.28;46.40;97717.95;108428;1252;59665;-58
2023/11/25 05:48:27;;;;;;;8.60;5.10;;;;;;;10.31;46.38;97720.70;101658;1291;601608;-58
2023/11/25 05:50:55;;;;;;;;;;;;;;;10.16;46.39;97717.05;103798;1266;60528;-58
2023/11/25 05:53:23;;;;;;;10.40;5.30;;;;;;;10.09;46.48;97709.33;103827;1266;59429;-59
2023/11/25 05:55:50;;;;;;;13.50;4.90;;;;;;;10.03;46.50;97715.01;103506;1267;72095;-58
2023/11/25 05:58:18;;;;;;;10.90;5.60;;;;;;;9.99;46.66;97717.20;103757;1267;69709;-60
2023/11/25 06:00:46;;;;;;;7.30;4.80;;;;;;;9.88;46.70;97724.27;103444;1271;72853;-58
2023/11/25 06:03:13;;;;;;;8.50;5.30;;;;;;;9.79;46.92;97720.38;103722;1267;200276;-59
2023/11/25 06:05:41;;;;;;;;;;;;;;;9.81;46.97;97723.23;104052;1264;59707;-59
2023/11/25 06:08:09;;;;;;;9.50;4.80;;;;;;;9.80;47.03;97725.43;103930;1269;72459;-59
2023/11/25 06:10:37;;;;;;;9.30;5.30;;;;;;;9.75;47.33;97733.10;103897;1264;69586;-59
2023/11/25 06:13:04;;;;;;;;;;;;;;;9.75;47.52;97727.15;107017;1264;73512;-59
2023/11/25 06:15:32;;;;;;;5.10;4.50;;;;;;;9.75;47.67;97715.61;106723;1263;59647;-59
2023/11/25 06:20:48;;;;;;;9.40;5.80;;;;;;;9.38;50.08;97703.50;102277;1296;601624;-61
2023/11/25 06:23:16;;;;;;;;;;;;;;;10.61;46.62;97686.14;104152;1269;61354;-58
2023/11/25 06:25:44;;;;;;;8.60;5.30;;;;;;;10.76;46.55;97687.69;103889;1267;59785;-58
2023/11/25 06:28:13;;;;;;;9.40;5.40;;;;;;;10.70;46.32;97693.90;104065;1270;72478;-60
2023/11/25 06:30:40;;;;;;;7.80;4.60;;;;;;;10.69;46.55;97704.31;103849;1268;69678;-60
2023/11/25 06:33:08;;;;;;;6.50;4.50;;;;;;;10.64;46.27;97705.39;103800;1273;72464;-58
2023/11/25 06:35:37;;;;;;;7.30;5.10;;;;;;;10.46;46.86;97696.20;106421;1263;235277;-58
2023/11/25 06:38:04;;;;;;;6.30;5.10;;;;;;;10.45;47.08;97693.80;107074;1263;59670;-59
2023/11/25 06:40:34;;;;;;;;;;;;;;;10.36;47.24;97699.90;107017;1263;72886;-61
2023/11/25 06:43:01;;;;;;;6.90;4.40;;;;;;;10.40;47.51;97691.95;107259;1262;68725;-60
2023/11/25 06:45:29;;;;;;;6.40;4.00;;;;;;;10.40;47.56;97682.23;107315;1264;72437;-60
2023/11/25 06:47:57;;;;;;;6.60;4.20;;;;;;;10.54;47.44;97685.98;106978;1263;59748;-60
2023/11/25 06:50:24;;;;;;;;;;;;;;;10.70;47.07;97697.04;106941;1263;59714;-60
2023/11/25 06:52:52;;;;;;;7.80;4.20;;;;;;;10.77;47.16;97706.14;107120;1263;72265;-59
2023/11/25 06:55:20;;;;;;;8.10;4.70;;;;;;;10.88;47.09;97707.98;106978;1263;69388;-60
2023/11/25 06:57:49;;;;;;;8.60;5.00;;;;;;;11.01;46.86;97705.59;106926;1263;73371;-59
2023/11/25 07:00:17;;;;;;;10.10;4.60;;;;;;;11.11;46.58;97711.31;107946;1254;61631;-60
2023/11/25 07:02:45;;;;;;;7.10;5.50;;;;;;;11.16;46.44;97721.30;108287;1253;59718;-59
2023/11/25 07:05:13;;;;;;;9.10;5.90;;;;;;;11.14;46.55;97719.54;108283;1252;73325;-59
2023/11/25 07:07:41;;;;;;;10.70;5.90;;;;;;;11.12;46.42;97724.30;108559;1252;67957;-59
2023/11/25 07:10:13;;;;;;;;;;;;;;;11.10;46.37;97730.52;108163;1252;73602;-59
2023/11/25 07:12:42;;;;;;;9.20;5.70;;;;;;;11.11;46.56;97736.96;108064;1254;61667;-60
2023/11/25 07:15:10;;;;;;;7.50;5.90;;;;;;;11.16;46.38;97735.54;108323;1251;60107;-60
2023/11/25 07:17:38;;;;;;;8.10;6.10;;;;;;;11.21;46.67;97739.73;108315;1253;73672;-60
2023/11/25 07:20:13;;;;;;;10.50;5.70;;;;;;;11.27;46.36;97745.41;108387;1251;69144;-58
2023/11/25 07:22:41;;;;;;;7.70;5.80;;;;;;;11.47;45.84;97740.02;108347;1251;72914;-58
2023/11/25 07:25:11;;;;;;;7.40;5.20;;;;;;;11.60;45.96;97743.24;108248;1253;60797;-58
2023/11/25 07:27:40;;;;;;;9.50;5.80;;;;;;;11.47;46.21;97747.41;108434;1252;60729;-58
2023/11/25 07:30:11;;;;;;;7.20;5.20;;;;;;;11.58;46.08;97753.19;108256;1252;73312;-58
2023/11/25 07:32:39;;;;;;;6.90;5.30;;;;;;;11.69;45.95;97767.10;108223;1251;69366;-57
2023/11/25 07:35:07;;;;;;;7.60;5.40;;;;;;;11.75;45.76;97774.54;108340;1253;72418;-57
2023/11/25 07:37:35;;;;;;;9.80;6.30;;;;;;;11.78;45.94;97780.83;108093;1253;59796;-57
2023/11/25 07:40:04;;;;;;;9.20;6.10;;;;;;;11.90;45.73;97790.45;108366;1252;59708;-57
2023/11/25 07:42:31;;;;;;;9.50;6.40;;;;;;;11.99;45.60;97802.05;108123;1254;75307;-58
2023/11/25 07:44:59;;;;;;;9.00;5.10;;;;;;;12.06;45.47;97807.11;108250;1251;69100;-58
2023/11/25 07:47:26;;;;;;;10.50;6.00;;;;;;;11.99;45.46;97817.63;108299;1252;73279;-58
2023/11/25 07:49:54;;;;;;;12.20;6.30;;;;;;;12.07;45.38;97817.77;108359;1251;60821;-58
2023/11/25 07:52:22;;;;;;;13.30;6.40;;;;;;;12.05;45.52;97815.92;108065;1254;59735;-58
2023/11/25 07:54:50;;;;;;;10.50;6.40;;;;;;;12.06;45.42;97813.83;108424;1252;73711;-56
2023/11/25 07:57:17;;;;;;;11.40;6.50;;;;;;;12.00;45.34;97819.47;108218;1254;69105;-59
2023/11/25 07:59:45;;;;;;;9.00;6.40;;;;;;;11.95;45.46;97820.25;108263;1252;72795;-58
2023/11/25 08:02:14;;;;;;;;;;;;;;;12.07;45.19;97818.10;108350;1251;60148;-58
2023/11/25 08:04:41;;;;;;;10.00;5.80;;;;;;;12.00;44.95;97826.01;108329;1251;60451;-58
2023/11/25 08:07:09;;;;;;;10.60;6.80;;;;;;;11.93;45.07;97829.06;108383;1253;71674;-58
2023/11/25 08:09:37;;;;;;;9.80;6.20;;;;;;;11.97;45.36;97822.38;108495;1252;69140;-59
2023/11/25 08:12:06;;;;;;;6.60;5.30;;;;;;;12.07;45.33;97815.77;108300;1254;71391;-58
2023/11/25 08:14:34;;;;;;;9.00;5.30;;;;;;;12.14;45.36;97815.23;108249;1253;60591;-58
2023/11/25 08:17:02;;;;;;;7.40;5.10;;;;;;;12.20;45.22;97811.10;108267;1252;59597;-58
2023/11/25 08:19:30;;;;;;;10.70;6.40;;;;;;;12.29;45.27;97810.96;108386;1251;73913;-56
2023/11/25 08:21:58;;;;;;;6.50;4.70;;;;;;;12.28;45.33;97811.54;108309;1252;70012;-58
2023/11/25 08:24:26;;;;;;;7.70;5.70;;;;;;;12.36;45.33;97807.95;108300;1253;71803;-58
2023/11/25 08:26:54;;;;;;;9.40;6.10;;;;;;;12.42;45.14;97801.64;108486;1251;59776;-57
2023/11/25 08:29:21;;;;;;;;;;;;;;;12.30;45.24;97796.43;108288;1252;58828;-58
2023/11/25 08:31:49;;;;;;;;;;;;;;;12.27;45.12;97791.75;108503;1253;72712;-58
2023/11/25 08:34:17;;;;;;;12.30;4.90;;;;;;;12.25;45.22;97798.38;108450;1254;69386;-63
2023/11/25 08:36:52;;;;;;;8.40;4.60;;;;;;;12.29;45.07;97800.55;108309;1251;72395;-61
2023/11/25 08:39:27;;;;;;;8.90;5.30;;;;;;;12.32;45.31;97807.02;108494;1252;61172;-60
2023/11/25 08:41:58;;;;;;;6.40;4.60;;;;;;;12.40;45.45;97802.48;108247;1253;59679;-61
2023/11/25 08:44:27;;;;;;;8.50;4.40;;;;;;;12.38;45.11;97792.44;108385;1253;71778;-60
2023/11/25 08:46:56;;;;;;;6.50;4.90;;;;;;;12.36;45.14;97793.20;108235;1253;69416;-61
2023/11/25 08:49:25;;;;;;;8.20;4.60;;;;;;;12.38;45.23;97795.83;108370;1253;71345;-61
2023/11/25 08:51:53;;;;;;;8.90;4.40;;;;;;;12.40;45.08;97789.00;108292;1253;60597;-61
2023/11/25 08:54:20;;;;;;;5.10;4.00;;;;;;;12.39;45.04;97788.33;108390;1253;59670;-60
2023/11/25 08:56:48;;;;;;;;;;;;;;;12.50;44.83;97784.35;108406;1252;72861;-60
2023/11/25 08:59:20;;;;;;;7.10;4.00;;;;;;;12.62;44.58;97782.62;108367;1252;69175;-61
2023/11/25 09:01:49;;;;;;;8.30;4.60;;;;;;;12.72;44.81;97777.78;108294;1251;72530;-60
2023/11/25 09:04:20;;;;;;;6.40;4.60;;;;;;;12.73;44.46;97778.95;108268;1252;61276;-59
2023/11/25 09:06:48;;;;;;;5.60;4.40;;;;;;;12.84;44.36;97778.73;108380;1252;59719;-59
2023/11/25 09:09:17;;;;;;;9.80;4.90;;;;;;;12.96;44.29;97768.86;108380;1251;73290;-60
2023/11/25 09:11:45;;;;;;;7.80;4.80;;;;;;;13.05;44.10;97760.15;108261;1251;68176;-60
2023/11/25 09:14:14;;;;;;;8.10;4.70;;;;;;;13.08;44.16;97768.69;108230;1253;72463;-59
2023/11/25 09:16:43;;;;;;;6.60;4.40;;;;;;;13.10;44.07;97771.41;108309;1251;60726;-60
2023/11/25 09:19:12;;;;;;;9.20;5.00;;;;;;;13.14;43.85;97784.88;108228;1252;58948;-61
2023/11/25 09:21:41;;;;;;;5.10;4.20;;;;;;;13.22;43.44;97796.08;107738;1251;72912;-60
2023/11/25 09:24:09;;;;;;;6.30;4.40;;;;;;;13.11;43.30;97793.30;108204;1252;69571;-61
2023/11/25 09:26:37;;;;;;;5.30;4.10;;;;;;;13.23;43.56;97797.39;108183;1253;72568;-60
2023/11/25 09:29:05;;;;;;;4.70;4.20;;;;;;;13.31;43.52;97795.86;108408;1251;60623;-61
2023/11/25 09:31:33;;;;;;;7.20;3.90;;;;;;;13.34;43.12;97795.29;108342;1252;59758;-61
2023/11/25 09:34:02;;;;;;;9.00;3.90;;;;;;;13.35;43.26;97800.87;108278;1252;72867;-61
2023/11/25 09:36:30;;;;;;;8.50;4.60;;;;;;;13.42;43.17;97806.59;108410;1252;70111;-60
2023/11/25 09:38:58;;;;;;;8.30;5.00;;;;;;;13.51;42.60;97807.57;108309;1253;72779;-60
2023/11/25 09:41:26;;;;;;;7.80;5.30;;;;;;;13.52;42.57;97805.72;108246;1252;61551;-60
2023/11/25 09:43:53;;;;;;;9.50;5.40;;;;;;;13.47;41.91;97804.23;108200;1254;59667;-60
2023/11/25 09:46:21;;;;;;;6.80;4.90;;;;;;;13.41;42.00;97807.84;108145;1251;73259;-61
2023/11/25 09:48:49;;;;;;;7.20;5.30;;;;;;;13.44;42.53;97813.39;108251;1253;70141;-61
2023/11/25 09:51:19;;;;;;;6.70;5.40;;;;;;;13.43;42.34;97824.60;108469;1251;73976;-60
2023/11/25 09:53:46;;;;;;;7.20;5.10;;;;;;;13.47;42.40;97830.05;108262;1251;59261;-61
2023/11/25 09:56:14;;;;;;;8.80;5.40;;;;;;;13.37;42.20;97828.65;108159;1251;59777;-59
2023/11/25 09:58:43;;;;;;;6.80;4.50;;;;;;;13.44;42.03;97826.98;108196;1251;72153;-61
2023/11/25 10:01:13;;;;;;;7.70;5.70;;;;;;;13.41;42.23;97825.33;107830;1252;69647;-58
2023/11/25 10:03:43;;;;;;;8.40;6.40;;;;;;;13.49;42.34;97825.36;108364;1253;71940;-59
2023/11/25 10:06:11;;;;;;;8.40;6.20;;;;;;;13.50;42.15;97818.39;107951;1251;59090;-58
2023/11/25 10:08:39;;;;;;;9.90;6.90;;;;;;;13.57;42.29;97819.20;108350;1251;60125;-59
2023/11/25 10:11:08;;;;;;;11.30;8.30;;;;;;;13.56;41.95;97821.20;108405;1253;73661;-62
2023/11/25 10:13:40;;;;;;;9.90;6.70;;;;;;;13.61;41.83;97811.80;108286;1252;68612;-56
2023/11/25 10:16:09;;;;;;;11.60;7.00;;;;;;;13.57;41.87;97807.07;108213;1254;72606;-56
2023/11/25 10:18:37;;;;;;;7.70;5.90;;;;;;;13.70;41.83;97805.42;108126;1254;58670;-56
2023/11/25 10:21:08;;;;;;;;;;;;;;;13.81;41.79;97811.05;108255;1252;60718;-56
2023/11/25 10:23:36;;;;;;;6.70;4.30;;;;;;;13.82;41.66;97810.59;108213;1254;72886;-57
2023/11/25 10:26:03;;;;;;;;;;;;;;;13.88;41.45;97808.01;108253;1254;70273;-58
2023/11/25 10:28:33;;;;;;;8.90;5.00;;;;;;;13.90;41.62;97801.32;108305;1254;72592;-57
2023/11/25 10:31:04;;;;;;;5.90;4.80;;;;;;;13.93;41.54;97801.77;108356;1253;59021;-56
2023/11/25 10:33:34;;;;;;;9.10;5.00;;;;;;;14.01;41.32;97800.00;108305;1252;60273;-56
2023/11/25 10:36:03;;;;;;;8.20;4.50;;;;;;;14.02;41.30;97794.77;108041;1253;73740;-57
2023/11/25 10:38:31;;;;;;;6.70;4.40;;;;;;;14.03;40.97;97799.79;108227;1254;69768;-57
2023/11/25 10:41:03;;;;;;;6.00;4.60;;;;;;;14.00;40.82;97802.52;108421;1253;73373;-59
2023/11/25 10:43:32;;;;;;;8.40;6.40;;;;;;;13.84;40.87;97804.82;108218;1253;59128;-58
2023/11/25 10:46:08;;;;;;;8.90;7.50;;;;;;;13.86;41.16;97815.01;108379;1252;60091;-59
2023/11/25 10:48:39;;;;;;;9.40;5.70;;;;;;;13.85;41.32;97818.95;108144;1253;73586;-59
2023/11/25 10:51:10;;;;;;;9.30;5.30;;;;;;;13.96;41.34;97818.38;108248;1253;68189;-55
2023/11/25 10:53:39;;;;;;;80.00;32.20;;;;;;;14.20;41.02;97811.91;108375;1252;71525;-57
2023/11/25 10:56:07;;;;;;;135.40;81.60;;;;;;;14.27;40.94;97811.48;108251;1252;59381;-57
2023/11/25 10:58:36;;;;;;;103.80;66.10;;;;;;;14.24;41.22;97819.65;108251;1252;59800;-59
2023/11/25 11:01:04;;;;;;;43.40;24.60;;;;;;;14.30;41.19;97818.48;108221;1254;73681;-58
2023/11/25 11:04:05;;;;;;;32.20;20.80;;;;;;;14.30;41.39;97820.92;108193;1253;71068;-59
2023/11/25 11:06:47;;;;;;;13.30;8.30;;;;;;;14.32;41.30;97820.77;108353;1253;73383;-59
2023/11/25 11:09:19;;;;;;;6.80;5.60;;;;;;;14.20;41.26;97819.00;108196;1251;59329;-59
2023/11/25 11:11:50;;;;;;;9.00;5.10;;;;;;;14.16;41.34;97827.41;108407;1252;60310;-59
2023/11/25 11:14:20;;;;;;;8.00;5.80;;;;;;;14.16;41.17;97829.52;108226;1251;74550;-59
2023/11/25 11:17:00;;;;;;;6.20;4.80;;;;;;;14.10;41.32;97829.30;108250;1253;70077;-59
2023/11/25 11:19:33;;;;;;;7.50;5.30;;;;;;;14.11;41.16;97831.23;108479;1252;73151;-59
2023/11/25 11:22:05;;;;;;;9.40;5.90;;;;;;;14.16;41.20;97828.45;108379;1253;59057;-59
2023/11/25 11:24:54;;;;;;;8.10;4.90;;;;;;;14.25;40.81;97837.02;108296;1252;60259;-58
2023/11/25 11:27:35;;;;;;;6.70;4.50;;;;;;;14.33;40.69;97840.56;108182;1252;74228;-59
2023/11/25 11:30:33;;;;;;;5.00;4.10;;;;;;;14.31;40.59;97837.73;108209;1253;69220;-59
2023/11/25 11:33:01;;;;;;;6.10;4.70;;;;;;;14.30;40.62;97842.44;108240;1251;73492;-59
2023/11/25 11:35:38;;;;;;;5.40;4.90;;;;;;;14.30;40.54;97845.21;108251;1253;60192;-60
2023/11/25 11:38:28;;;;;;;8.40;5.00;;;;;;;14.24;40.77;97843.65;108259;1251;58867;-58
2023/11/25 11:40:55;;;;;;;7.80;5.00;;;;;;;14.19;40.64;97846.00;108228;1251;74158;-58
2023/11/25 11:43:23;;;;;;;8.70;4.20;;;;;;;14.12;40.60;97846.42;108139;1252;69552;-59
2023/11/25 11:45:52;;;;;;;5.40;4.50;;;;;;;14.03;40.61;97849.65;108280;1253;73994;-58
2023/11/25 11:48:22;;;;;;;7.00;5.10;;;;;;;14.03;40.81;97848.06;108319;1252;58964;-61